Time;durP1;ratioP1;P1;durP2;ratioP2;P2;SDS_P1;SDS_P2;PMS_P1;PMS_P2;Temp;Humidity;BMP_temperature;BMP_pressure;BME280_temperature;BME280_humidity;BME280_pressure;Samples;Min_cycle;Max_cycle;Signal;HPM_P1;HPM_P2
2021/10/20 00:00:40;;;;;;;3.72;2.58;;;28.80;63.30;;;;;;4263725;27;20055;-74
2021/10/20 00:02:45;;;;;;;3.97;2.88;;;28.80;63.20;;;;;;4235324;27;20051;-74
2021/10/20 00:04:48;;;;;;;3.65;2.53;;;28.80;63.30;;;;;;4265194;27;20051;-73
2021/10/20 00:06:51;;;;;;;5.03;2.63;;;28.80;63.30;;;;;;4255759;27;20067;-73
2021/10/20 00:08:54;;;;;;;3.13;2.22;;;28.80;63.40;;;;;;4261788;27;20136;-74
2021/10/20 00:10:59;;;;;;;3.80;2.58;;;28.80;63.20;;;;;;4263225;27;20051;-73
2021/10/20 00:13:03;;;;;;;3.10;2.20;;;28.80;63.20;;;;;;4253221;27;20061;-74
2021/10/20 00:15:09;;;;;;;2.83;2.10;;;28.80;63.30;;;;;;4265132;27;20077;-73
2021/10/20 00:17:14;;;;;;;3.75;2.60;;;28.80;63.30;;;;;;4255275;27;20047;-73
2021/10/20 00:19:17;;;;;;;4.28;2.60;;;28.80;63.20;;;;;;4261669;27;20483;-73
2021/10/20 00:21:27;;;;;;;3.65;2.60;;;28.80;63.40;;;;;;4263421;27;20446;-73
2021/10/20 00:23:31;;;;;;;3.10;2.47;;;28.80;63.30;;;;;;4255942;27;20190;-74
2021/10/20 00:25:34;;;;;;;3.92;2.67;;;28.80;63.40;;;;;;4264871;27;20049;-73
2021/10/20 00:27:37;;;;;;;3.83;2.30;;;28.80;63.30;;;;;;4254204;27;20548;-73
2021/10/20 00:29:40;;;;;;;4.03;1.88;;;28.80;63.20;;;;;;4243922;27;20051;-74
2021/10/20 00:31:43;;;;;;;3.30;2.50;;;28.70;63.20;;;;;;4262984;27;20046;-74
2021/10/20 00:33:48;;;;;;;3.25;2.50;;;28.80;63.30;;;;;;4252849;27;20392;-73
2021/10/20 00:35:51;;;;;;;3.58;2.45;;;28.80;63.20;;;;;;4246506;27;20047;-73
2021/10/20 00:37:54;;;;;;;2.50;2.22;;;28.80;63.30;;;;;;4260200;27;20051;-73
2021/10/20 00:39:57;;;;;;;3.40;2.58;;;28.80;63.30;;;;;;4250379;27;20051;-73
2021/10/20 00:42:00;;;;;;;4.55;2.20;;;28.80;63.30;;;;;;4248727;27;20047;-74
2021/10/20 00:44:03;;;;;;;5.03;2.75;;;28.80;63.40;;;;;;4259022;27;20055;-73
2021/10/20 00:46:06;;;;;;;4.03;2.50;;;28.70;63.30;;;;;;4247138;27;20055;-74
2021/10/20 00:48:10;;;;;;;3.33;2.45;;;28.80;63.40;;;;;;4255686;27;20055;-73
2021/10/20 00:50:15;;;;;;;3.17;2.47;;;28.80;63.40;;;;;;4251199;27;20062;-74
2021/10/20 00:52:19;;;;;;;3.72;2.60;;;28.80;63.40;;;;;;4248478;27;20487;-73
2021/10/20 00:54:22;;;;;;;2.40;2.20;;;28.80;63.40;;;;;;4258905;27;20055;-73
2021/10/20 00:56:27;;;;;;;2.78;2.40;;;28.80;63.40;;;;;;4247007;27;20069;-73
2021/10/20 00:58:30;;;;;;;;;;;28.80;63.50;;;;;;4255983;27;20058;-73
2021/10/20 01:00:33;;;;;;;2.90;2.40;;;28.80;63.50;;;;;;4251020;27;19919;-74
2021/10/20 01:02:37;;;;;;;2.72;2.50;;;28.80;63.50;;;;;;4248681;27;20483;-74
2021/10/20 01:04:40;;;;;;;3.58;2.55;;;28.80;64.10;;;;;;4258751;27;20062;-73
2021/10/20 01:06:45;;;;;;;3.42;2.25;;;28.80;63.50;;;;;;4247025;27;20407;-73
2021/10/20 01:08:48;;;;;;;;;;;28.80;63.60;;;;;;4255610;27;20054;-73
2021/10/20 01:10:51;;;;;;;4.10;2.55;;;28.80;63.50;;;;;;4233045;27;19920;-73
2021/10/20 01:12:54;;;;;;;2.70;2.20;;;28.80;63.60;;;;;;4248365;27;20411;-75
2021/10/20 01:14:57;;;;;;;3.83;2.45;;;28.80;63.60;;;;;;4258280;27;20519;-74
2021/10/20 01:17:01;;;;;;;2.72;2.17;;;28.80;63.50;;;;;;4246942;27;20051;-74
2021/10/20 01:19:05;;;;;;;3.50;2.40;;;28.80;63.60;;;;;;4251136;27;20054;-75
2021/10/20 01:21:16;;;;;;;3.17;2.17;;;28.80;63.60;;;;;;4259027;27;20055;-75
2021/10/20 01:23:19;;;;;;;3.78;2.50;;;28.80;63.60;;;;;;4240344;27;20047;-72
2021/10/20 01:25:23;;;;;;;4.22;2.10;;;28.80;63.60;;;;;;4258156;27;20051;-73
2021/10/20 01:27:26;;;;;;;3.13;2.50;;;28.80;63.70;;;;;;4228407;28;20054;-73
2021/10/20 01:29:29;;;;;;;2.88;2.17;;;28.80;63.60;;;;;;4254530;27;20046;-73
2021/10/20 01:31:32;;;;;;;5.43;2.35;;;28.80;63.60;;;;;;4250495;27;20055;-73
2021/10/20 01:33:35;;;;;;;4.38;2.70;;;28.80;63.60;;;;;;4247741;27;20051;-73
2021/10/20 01:35:38;;;;;;;2.35;2.15;;;28.80;63.60;;;;;;4239816;27;20519;-73
2021/10/20 01:37:43;;;;;;;3.10;2.50;;;28.80;63.60;;;;;;4246191;27;20070;-73
2021/10/20 01:39:46;;;;;;;;;;;28.80;63.70;;;;;;4254018;27;20088;-73
2021/10/20 01:41:49;;;;;;;3.03;2.60;;;28.80;63.60;;;;;;4251160;27;19926;-73
2021/10/20 01:43:52;;;;;;;3.25;2.60;;;28.70;63.70;;;;;;4247777;27;20403;-73
2021/10/20 01:45:55;;;;;;;3.50;2.67;;;28.70;63.60;;;;;;4257624;27;20051;-73
2021/10/20 01:47:58;;;;;;;2.97;2.40;;;28.80;63.70;;;;;;4246453;27;20058;-73
2021/10/20 01:50:02;;;;;;;3.45;2.78;;;28.80;63.70;;;;;;4252755;27;20051;-73
2021/10/20 01:52:05;;;;;;;4.53;2.28;;;28.80;63.80;;;;;;4251518;27;20051;-73
2021/10/20 01:54:11;;;;;;;3.05;2.55;;;28.80;63.70;;;;;;4247307;27;20062;-73
2021/10/20 01:56:14;;;;;;;2.67;2.33;;;28.80;63.70;;;;;;4257490;27;20115;-73
2021/10/20 01:58:17;;;;;;;3.97;2.33;;;28.80;63.70;;;;;;4245730;27;20051;-73
2021/10/20 02:00:20;;;;;;;3.90;2.72;;;28.80;63.70;;;;;;4252734;27;20047;-73
2021/10/20 02:02:23;;;;;;;3.30;2.40;;;28.80;63.70;;;;;;4251690;27;20501;-73
2021/10/20 02:04:26;;;;;;;3.00;2.33;;;28.80;63.60;;;;;;4247495;27;20059;-75
2021/10/20 02:06:30;;;;;;;5.15;2.55;;;28.80;63.60;;;;;;4257351;27;20055;-73
2021/10/20 02:08:33;;;;;;;3.95;2.55;;;28.80;63.70;;;;;;4246329;27;20522;-72
2021/10/20 02:10:37;;;;;;;3.25;2.78;;;28.80;63.70;;;;;;4251591;27;20050;-72
2021/10/20 02:12:40;;;;;;;3.20;2.55;;;28.80;63.70;;;;;;4252569;27;20111;-73
2021/10/20 02:14:43;;;;;;;3.60;2.50;;;28.80;63.80;;;;;;4246599;27;20051;-72
2021/10/20 02:16:46;;;;;;;5.32;2.60;;;28.80;63.80;;;;;;4257566;27;20115;-73
2021/10/20 02:18:50;;;;;;;3.47;2.55;;;28.80;63.70;;;;;;4245850;27;20484;-74
2021/10/20 02:20:53;;;;;;;3.67;2.33;;;28.80;63.70;;;;;;4251037;27;20054;-72
2021/10/20 02:22:56;;;;;;;3.30;2.78;;;28.80;63.80;;;;;;4262912;27;20051;-73
2021/10/20 02:24:59;;;;;;;4.03;2.63;;;28.80;64.30;;;;;;4262506;27;20047;-72
2021/10/20 02:27:04;;;;;;;2.53;2.33;;;28.80;63.70;;;;;;4250368;27;20062;-73
2021/10/20 02:29:06;;;;;;;;;;;28.80;63.70;;;;;;4263539;27;20089;-73
2021/10/20 02:31:09;;;;;;;3.90;2.70;;;28.80;63.80;;;;;;4257588;27;19919;-72
2021/10/20 02:33:12;;;;;;;4.60;2.65;;;28.80;63.80;;;;;;4254958;27;20051;-75
2021/10/20 02:35:15;;;;;;;4.28;2.60;;;28.80;63.80;;;;;;4263079;27;20063;-75
2021/10/20 02:37:19;;;;;;;3.60;2.83;;;28.80;63.80;;;;;;4258504;27;20046;-73
2021/10/20 02:39:22;;;;;;;3.55;2.70;;;28.80;63.90;;;;;;4245854;28;20058;-73
2021/10/20 02:41:24;;;;;;;2.92;2.53;;;28.80;63.80;;;;;;4249447;27;20055;-73
2021/10/20 02:43:29;;;;;;;3.20;2.40;;;28.80;63.80;;;;;;4254049;27;20054;-73
2021/10/20 02:45:35;;;;;;;3.10;2.45;;;28.80;63.90;;;;;;4245897;28;20055;-73
2021/10/20 02:47:40;;;;;;;3.00;2.70;;;28.80;63.80;;;;;;4258317;27;20055;-72
2021/10/20 02:49:43;;;;;;;4.35;2.50;;;28.80;63.90;;;;;;4245444;28;20070;-72
2021/10/20 02:51:46;;;;;;;4.32;2.50;;;28.80;63.80;;;;;;4250104;27;20063;-73
2021/10/20 02:53:49;;;;;;;4.30;2.92;;;28.80;63.90;;;;;;4257459;27;20407;-73
2021/10/20 02:55:52;;;;;;;3.33;2.50;;;28.80;63.80;;;;;;4249042;27;20075;-73
2021/10/20 02:57:55;;;;;;;4.20;2.80;;;28.80;63.80;;;;;;4261263;27;20054;-73
2021/10/20 03:00:00;;;;;;;2.92;2.50;;;28.80;63.90;;;;;;4249188;27;20042;-73
2021/10/20 03:02:03;;;;;;;3.92;3.00;;;28.80;63.90;;;;;;4252378;27;20043;-73
2021/10/20 03:04:06;;;;;;;3.38;2.72;;;28.80;63.80;;;;;;4257999;27;20438;-73
2021/10/20 03:06:09;;;;;;;4.88;2.90;;;28.80;64.00;;;;;;4249078;27;20062;-72
2021/10/20 03:08:12;;;;;;;2.80;2.45;;;28.80;63.90;;;;;;4260815;27;20061;-73
2021/10/20 03:10:16;;;;;;;3.53;2.80;;;28.80;63.90;;;;;;4249410;27;20104;-72
2021/10/20 03:12:19;;;;;;;3.10;2.80;;;28.80;63.90;;;;;;4251325;27;20051;-72
2021/10/20 03:14:22;;;;;;;4.28;2.80;;;28.80;63.90;;;;;;4240165;27;20058;-73
2021/10/20 03:16:27;;;;;;;3.70;2.83;;;28.80;63.90;;;;;;4248532;27;20058;-73
2021/10/20 03:18:30;;;;;;;2.78;2.53;;;28.80;63.90;;;;;;4260112;27;20066;-72
2021/10/20 03:20:33;;;;;;;3.67;2.80;;;28.80;63.90;;;;;;4249772;27;20055;-74
2021/10/20 03:22:38;;;;;;;3.10;2.80;;;28.80;63.90;;;;;;4232724;27;20102;-73
2021/10/20 03:24:40;;;;;;;;;;;28.80;64.00;;;;;;4259112;27;20054;-73
2021/10/20 03:26:43;;;;;;;3.03;2.50;;;28.80;63.90;;;;;;4248643;27;19919;-73
2021/10/20 03:28:46;;;;;;;3.10;2.35;;;28.80;63.90;;;;;;4259330;27;20051;-73
2021/10/20 03:30:49;;;;;;;3.92;2.65;;;28.80;64.00;;;;;;4249735;27;20047;-72
2021/10/20 03:32:54;;;;;;;2.88;2.50;;;28.80;64.00;;;;;;4231953;27;20051;-72
2021/10/20 03:34:57;;;;;;;5.25;2.45;;;28.80;64.00;;;;;;4259037;27;20078;-73
2021/10/20 03:37:00;;;;;;;5.00;2.60;;;28.80;64.00;;;;;;4248514;27;20055;-73
2021/10/20 03:39:03;;;;;;;4.82;2.70;;;28.80;64.00;;;;;;4258716;27;20058;-73
2021/10/20 03:41:06;;;;;;;4.05;2.80;;;28.80;64.00;;;;;;4250315;27;20055;-72
2021/10/20 03:43:13;;;;;;;4.95;2.53;;;28.80;64.00;;;;;;4249891;27;20487;-73
2021/10/20 03:45:16;;;;;;;4.22;3.00;;;28.80;64.00;;;;;;4259222;27;20059;-73
2021/10/20 03:47:19;;;;;;;3.30;2.53;;;28.80;64.00;;;;;;4248227;27;20116;-73
2021/10/20 03:49:24;;;;;;;4.50;2.63;;;28.80;64.00;;;;;;4239879;27;20051;-73
2021/10/20 03:51:27;;;;;;;4.30;3.17;;;28.80;64.00;;;;;;4250447;27;20054;-73
2021/10/20 03:53:30;;;;;;;3.00;2.63;;;28.80;64.00;;;;;;4231315;27;20643;-73
2021/10/20 03:55:33;;;;;;;3.13;2.50;;;28.80;64.00;;;;;;4253649;27;20062;-73
2021/10/20 03:57:37;;;;;;;3.50;2.50;;;28.80;64.00;;;;;;4265314;27;20058;-73
2021/10/20 03:59:42;;;;;;;3.97;2.65;;;28.80;64.10;;;;;;4255046;27;20047;-73
2021/10/20 04:01:45;;;;;;;3.75;2.97;;;28.80;64.00;;;;;;4262741;27;20107;-74
2021/10/20 04:03:49;;;;;;;2.97;2.63;;;28.90;64.10;;;;;;4244459;27;20051;-73
2021/10/20 04:05:53;;;;;;;4.20;3.20;;;28.80;64.00;;;;;;4253272;27;20055;-73
2021/10/20 04:07:56;;;;;;;4.22;2.55;;;28.80;64.00;;;;;;4265257;27;20062;-73
2021/10/20 04:09:59;;;;;;;3.42;3.00;;;28.80;64.00;;;;;;4255217;27;20051;-73
2021/10/20 04:12:03;;;;;;;4.53;2.67;;;28.80;64.00;;;;;;4262269;27;20402;-73
2021/10/20 04:14:06;;;;;;;3.22;2.53;;;28.80;64.00;;;;;;4263430;27;20527;-73
2021/10/20 04:16:10;;;;;;;3.25;2.65;;;28.80;64.00;;;;;;4252862;27;20419;-73
2021/10/20 04:18:13;;;;;;;3.40;3.08;;;28.80;64.00;;;;;;4246610;27;20058;-73
2021/10/20 04:20:18;;;;;;;3.67;2.25;;;28.80;64.00;;;;;;4255826;27;20479;-73
2021/10/20 04:22:23;;;;;;;3.20;2.70;;;28.90;64.10;;;;;;4261786;27;20058;-74
2021/10/20 04:24:26;;;;;;;3.65;2.47;;;28.80;64.00;;;;;;4263342;27;20063;-73
2021/10/20 04:26:29;;;;;;;2.60;2.38;;;28.80;64.00;;;;;;4253125;27;20053;-73
2021/10/20 04:28:32;;;;;;;3.85;2.88;;;28.80;64.00;;;;;;4264723;27;20062;-73
2021/10/20 04:30:35;;;;;;;5.68;2.92;;;28.80;64.00;;;;;;4255497;27;20389;-72
2021/10/20 04:32:38;;;;;;;4.10;2.90;;;28.80;64.00;;;;;;4261073;27;20419;-73
2021/10/20 04:34:41;;;;;;;3.78;2.83;;;28.80;64.00;;;;;;4244517;27;20047;-73
2021/10/20 04:36:44;;;;;;;3.10;2.35;;;28.80;64.00;;;;;;4252824;27;20051;-73
2021/10/20 04:38:50;;;;;;;3.03;2.72;;;28.80;64.00;;;;;;4264504;27;20058;-73
2021/10/20 04:40:53;;;;;;;4.00;2.30;;;28.90;64.00;;;;;;4255940;27;20047;-74
2021/10/20 04:42:57;;;;;;;3.53;2.72;;;28.90;64.10;;;;;;4260203;27;20058;-73
2021/10/20 04:45:01;;;;;;;2.83;2.63;;;28.80;64.00;;;;;;4262975;27;20453;-74
2021/10/20 04:47:04;;;;;;;3.38;2.67;;;28.80;64.00;;;;;;4252722;27;20046;-73
2021/10/20 04:49:07;;;;;;;3.25;2.92;;;28.80;64.00;;;;;;4264597;27;20494;-73
2021/10/20 04:51:10;;;;;;;3.13;2.50;;;28.80;64.00;;;;;;4256365;27;20523;-73
2021/10/20 04:53:13;;;;;;;3.67;2.80;;;28.90;64.10;;;;;;4259852;27;20042;-73
2021/10/20 04:55:17;;;;;;;3.05;2.75;;;28.80;64.00;;;;;;4262913;27;20051;-73
2021/10/20 04:57:20;;;;;;;3.53;2.58;;;28.90;64.10;;;;;;4252501;27;20436;-73
2021/10/20 04:59:24;;;;;;;4.90;2.83;;;28.80;63.90;;;;;;4264470;27;20487;-74
2021/10/20 05:01:27;;;;;;;3.17;2.50;;;28.80;64.00;;;;;;4256535;27;20107;-73
2021/10/20 05:03:30;;;;;;;4.28;2.67;;;28.80;64.00;;;;;;4258884;27;20050;-73
2021/10/20 05:05:33;;;;;;;3.83;2.50;;;28.90;64.00;;;;;;4262446;27;20417;-75
2021/10/20 05:07:46;;;;;;;3.95;2.55;;;28.80;64.00;;;;;;4252587;27;20063;-73
2021/10/20 05:09:49;;;;;;;4.32;3.13;;;28.80;64.00;;;;;;4263975;27;20116;-73
2021/10/20 05:11:54;;;;;;;3.57;2.50;;;28.90;64.00;;;;;;4255807;27;20058;-73
2021/10/20 05:13:57;;;;;;;3.20;2.50;;;28.80;64.00;;;;;;4241203;27;20135;-73
2021/10/20 05:16:00;;;;;;;3.45;2.88;;;28.80;64.00;;;;;;4260289;27;20046;-73
2021/10/20 05:18:03;;;;;;;3.40;2.80;;;28.80;64.00;;;;;;4258358;27;20054;-73
2021/10/20 05:20:08;;;;;;;3.53;2.80;;;28.80;63.90;;;;;;4246740;27;20542;-73
2021/10/20 05:22:10;;;;;;;3.08;2.58;;;28.80;63.90;;;;;;4254148;27;20622;-73
2021/10/20 05:24:13;;;;;;;3.15;2.67;;;28.80;63.90;;;;;;4249223;27;20062;-73
2021/10/20 05:26:17;;;;;;;5.68;2.85;;;28.80;63.90;;;;;;4247846;27;20112;-73
2021/10/20 05:28:21;;;;;;;3.42;2.15;;;28.80;63.90;;;;;;4240066;27;20526;-73
2021/10/20 05:30:24;;;;;;;3.75;2.95;;;28.80;63.90;;;;;;4246456;27;20073;-73
2021/10/20 05:32:28;;;;;;;2.88;2.40;;;28.90;63.90;;;;;;4253566;27;20520;-73
2021/10/20 05:34:31;;;;;;;4.28;2.78;;;28.90;64.60;;;;;;4251798;27;20063;-73
2021/10/20 05:36:34;;;;;;;3.67;2.35;;;28.80;63.80;;;;;;4247745;27;20082;-73
2021/10/20 05:38:37;;;;;;;6.30;2.33;;;28.90;63.90;;;;;;4249134;27;20457;-74
2021/10/20 05:40:41;;;;;;;3.70;2.55;;;28.80;63.80;;;;;;4263519;27;20058;-72
2021/10/20 05:42:44;;;;;;;4.97;2.50;;;28.80;63.90;;;;;;4256749;27;20047;-73
2021/10/20 05:44:48;;;;;;;3.22;2.40;;;28.80;63.80;;;;;;4239071;27;20067;-73
2021/10/20 05:46:52;;;;;;;3.75;2.45;;;28.80;63.80;;;;;;4261999;27;20507;-73
2021/10/20 05:48:55;;;;;;;4.15;2.72;;;28.90;63.80;;;;;;4257753;27;20057;-72
2021/10/20 05:50:58;;;;;;;3.75;2.70;;;28.90;63.80;;;;;;4246216;27;20069;-73
2021/10/20 05:53:01;;;;;;;4.70;2.60;;;28.90;63.90;;;;;;4252147;27;20054;-73
2021/10/20 05:55:04;;;;;;;3.88;2.50;;;28.80;63.80;;;;;;4252538;27;20055;-73
2021/10/20 05:57:07;;;;;;;4.43;2.58;;;28.80;63.80;;;;;;4246830;27;20442;-72
2021/10/20 05:59:11;;;;;;;2.97;2.50;;;28.80;63.70;;;;;;4257550;27;20046;-73
2021/10/20 06:01:17;;;;;;;2.83;2.55;;;28.80;63.70;;;;;;4246294;27;20050;-73
2021/10/20 06:03:20;;;;;;;3.28;2.60;;;28.80;63.80;;;;;;4251443;27;20118;-73
2021/10/20 06:05:23;;;;;;;4.13;2.70;;;28.80;63.80;;;;;;4234267;27;20047;-74
2021/10/20 06:07:26;;;;;;;2.90;2.47;;;28.80;63.80;;;;;;4246242;27;20047;-73
2021/10/20 06:09:29;;;;;;;3.90;2.25;;;28.80;63.80;;;;;;4257827;27;20050;-73
2021/10/20 06:11:33;;;;;;;3.65;2.70;;;28.80;63.80;;;;;;4245871;27;20062;-73
2021/10/20 06:13:36;;;;;;;3.70;2.63;;;28.80;63.80;;;;;;4250677;27;20049;-73
2021/10/20 06:15:41;;;;;;;3.20;2.50;;;28.80;63.80;;;;;;4253386;27;20468;-73
2021/10/20 06:17:46;;;;;;;3.40;2.47;;;28.80;63.80;;;;;;4227574;27;20062;-74
2021/10/20 06:19:49;;;;;;;3.00;2.58;;;28.80;63.80;;;;;;4257817;27;20461;-73
2021/10/20 06:21:53;;;;;;;3.67;2.47;;;28.80;63.80;;;;;;4227532;28;20059;-73
2021/10/20 06:23:56;;;;;;;4.03;2.83;;;28.80;63.80;;;;;;4252418;27;20427;-73
2021/10/20 06:25:59;;;;;;;2.60;2.40;;;28.90;63.90;;;;;;4255214;27;20054;-73
2021/10/20 06:28:02;;;;;;;3.75;2.75;;;28.90;63.90;;;;;;4262751;27;20142;-73
2021/10/20 06:30:07;;;;;;;3.30;2.45;;;28.80;63.90;;;;;;4249669;27;20051;-73
2021/10/20 06:32:10;;;;;;;4.57;3.05;;;28.80;63.90;;;;;;4262865;27;20083;-74
2021/10/20 06:34:14;;;;;;;4.10;3.10;;;28.90;64.00;;;;;;4239658;28;20424;-75
2021/10/20 06:36:22;;;;;;;3.28;2.58;;;28.90;64.00;;;;;;4255029;27;20050;-74
2021/10/20 06:38:24;;;;;;;6.78;2.55;;;28.80;63.90;;;;;;4262476;27;20055;-75
2021/10/20 06:40:28;;;;;;;6.90;2.67;;;28.80;63.90;;;;;;4250169;27;20059;-75
2021/10/20 06:42:31;;;;;;;3.50;2.58;;;28.80;63.90;;;;;;4244792;27;20426;-74
2021/10/20 06:44:33;;;;;;;4.55;2.78;;;28.80;63.90;;;;;;4258436;27;20052;-75
2021/10/20 06:46:36;;;;;;;5.60;2.95;;;28.80;64.00;;;;;;4254779;27;20051;-75
2021/10/20 06:48:40;;;;;;;3.70;2.60;;;28.80;64.00;;;;;;4262954;27;20391;-73
2021/10/20 06:50:44;;;;;;;3.58;2.80;;;28.80;64.10;;;;;;4231678;28;20039;-75
2021/10/20 06:52:47;;;;;;;3.90;2.70;;;28.80;64.10;;;;;;4245670;28;20144;-73
2021/10/20 06:54:50;;;;;;;3.20;2.55;;;28.80;64.10;;;;;;4249426;27;20058;-73
2021/10/20 06:56:55;;;;;;;2.78;2.33;;;28.80;64.20;;;;;;4254014;27;20055;-73
2021/10/20 06:58:58;;;;;;;6.00;2.45;;;28.90;64.30;;;;;;4245443;28;20051;-73
2021/10/20 07:01:01;;;;;;;3.72;2.67;;;28.90;64.30;;;;;;4257788;27;20084;-74
2021/10/20 07:03:04;;;;;;;3.97;2.90;;;28.90;64.40;;;;;;4245603;28;20407;-73
2021/10/20 07:05:08;;;;;;;4.22;2.58;;;28.90;64.40;;;;;;4248536;27;20063;-73
2021/10/20 07:07:13;;;;;;;3.72;3.15;;;28.80;64.40;;;;;;4254295;27;20051;-73
2021/10/20 07:09:16;;;;;;;3.85;2.60;;;28.80;64.40;;;;;;4245639;28;20055;-73
2021/10/20 07:11:19;;;;;;;3.63;2.65;;;28.90;64.50;;;;;;4257567;27;20418;-74
2021/10/20 07:13:22;;;;;;;3.75;2.50;;;28.80;64.50;;;;;;4245592;27;20055;-73
2021/10/20 07:15:26;;;;;;;4.13;2.57;;;28.80;64.40;;;;;;4230350;27;20056;-73
2021/10/20 07:17:29;;;;;;;5.28;2.67;;;28.90;64.50;;;;;;4254706;27;20051;-73
2021/10/20 07:19:32;;;;;;;3.53;2.72;;;28.80;64.50;;;;;;4245399;28;20047;-73
2021/10/20 07:21:38;;;;;;;4.90;2.70;;;28.80;64.60;;;;;;4256562;27;20055;-73
2021/10/20 07:23:43;;;;;;;3.05;2.72;;;28.90;64.70;;;;;;4246097;27;20055;-75
2021/10/20 07:25:46;;;;;;;4.55;3.05;;;28.90;64.70;;;;;;4248071;27;20054;-73
2021/10/20 07:27:49;;;;;;;4.20;3.05;;;28.90;64.60;;;;;;4254668;27;20051;-73
2021/10/20 07:29:52;;;;;;;3.78;2.75;;;28.90;64.60;;;;;;4245186;28;20054;-73
2021/10/20 07:31:55;;;;;;;4.78;2.40;;;28.80;65.20;;;;;;4238163;27;20047;-74
2021/10/20 07:33:59;;;;;;;5.45;2.97;;;28.80;64.60;;;;;;4246431;27;20051;-73
2021/10/20 07:36:02;;;;;;;3.58;2.63;;;28.80;64.60;;;;;;4247730;27;20086;-72
2021/10/20 07:38:05;;;;;;;6.47;3.00;;;28.80;64.70;;;;;;4255873;27;20055;-74
2021/10/20 07:40:11;;;;;;;4.05;2.60;;;28.80;64.70;;;;;;4248297;27;20403;-74
2021/10/20 07:42:15;;;;;;;5.13;3.08;;;28.90;64.80;;;;;;4259550;27;20088;-76
2021/10/20 07:44:18;;;;;;;4.82;2.97;;;28.90;64.80;;;;;;4244927;27;20407;-74
2021/10/20 07:46:22;;;;;;;4.05;2.95;;;28.90;64.80;;;;;;4260056;27;20433;-73
2021/10/20 07:48:25;;;;;;;3.75;2.75;;;28.80;64.70;;;;;;4257919;27;20051;-73
2021/10/20 07:50:28;;;;;;;3.97;2.88;;;28.80;64.60;;;;;;4246850;27;20047;-73
2021/10/20 07:52:33;;;;;;;5.78;3.05;;;28.90;64.80;;;;;;4258395;27;20055;-73
2021/10/20 07:54:38;;;;;;;;;;;28.90;64.80;;;;;;4250298;27;20063;-73
2021/10/20 07:56:43;;;;;;;5.88;2.90;;;28.80;64.80;;;;;;4250022;27;19924;-75
2021/10/20 07:58:46;;;;;;;4.65;3.03;;;28.80;64.80;;;;;;4258125;27;20411;-73
2021/10/20 08:00:49;;;;;;;3.85;2.70;;;28.80;64.80;;;;;;4247906;27;20048;-73
2021/10/20 08:02:53;;;;;;;3.55;2.72;;;28.80;64.90;;;;;;4258386;27;20062;-73
2021/10/20 08:04:56;;;;;;;4.05;2.65;;;28.80;64.90;;;;;;4249411;27;20499;-73
2021/10/20 08:06:59;;;;;;;6.80;2.95;;;28.90;64.90;;;;;;4248038;27;20064;-74
2021/10/20 08:09:04;;;;;;;;;;;28.90;65.00;;;;;;4257625;27;20465;-72
2021/10/20 08:11:07;;;;;;;5.25;2.88;;;28.80;64.90;;;;;;4246566;27;19926;-72
2021/10/20 08:13:12;;;;;;;5.53;3.00;;;28.80;64.90;;;;;;4256377;27;20055;-72
2021/10/20 08:15:16;;;;;;;4.00;2.90;;;28.80;64.90;;;;;;4248036;27;20104;-73
2021/10/20 08:17:20;;;;;;;4.60;2.93;;;28.80;64.90;;;;;;4247775;27;20055;-74
2021/10/20 08:19:23;;;;;;;8.52;3.13;;;28.80;64.90;;;;;;4257141;27;20047;-72
2021/10/20 08:21:26;;;;;;;4.32;3.15;;;28.80;64.90;;;;;;4246753;27;20491;-72
2021/10/20 08:23:29;;;;;;;3.08;2.60;;;28.90;65.00;;;;;;4252243;27;20047;-73
2021/10/20 08:25:36;;;;;;;4.30;2.85;;;28.90;65.00;;;;;;4262119;27;20065;-72
2021/10/20 08:27:41;;;;;;;5.68;2.90;;;28.80;65.60;;;;;;4263136;27;20046;-73
2021/10/20 08:29:46;;;;;;;4.50;2.72;;;28.90;65.10;;;;;;4253606;27;20057;-74
2021/10/20 08:31:49;;;;;;;3.95;2.80;;;28.90;65.10;;;;;;4264495;27;20055;-73
2021/10/20 08:33:52;;;;;;;4.05;2.90;;;28.90;65.10;;;;;;4253940;27;20043;-73
2021/10/20 08:35:55;;;;;;;4.72;2.78;;;28.90;65.10;;;;;;4244203;27;20147;-73
2021/10/20 08:38:03;;;;;;;5.93;3.05;;;28.90;65.10;;;;;;4263140;27;20066;-74
2021/10/20 08:40:10;;;;;;;7.80;3.00;;;28.80;65.20;;;;;;4236432;27;20051;-72
2021/10/20 08:42:13;;;;;;;8.57;3.08;;;28.90;65.20;;;;;;4264583;27;20111;-74
2021/10/20 08:44:36;;;;;;;19.85;3.92;;;28.80;65.20;;;;;;4251532;27;20507;-73
2021/10/20 08:46:41;;;;;;;6.00;3.03;;;28.90;65.30;;;;;;4264321;27;20059;-75
2021/10/20 08:48:44;;;;;;;8.70;3.13;;;28.90;65.40;;;;;;4259264;27;20062;-73
2021/10/20 08:50:51;;;;;;;5.85;3.28;;;28.90;65.50;;;;;;4256962;27;20046;-74
2021/10/20 08:52:54;;;;;;;9.00;2.97;;;28.90;65.50;;;;;;4264257;27;20054;-72
2021/10/20 08:54:58;;;;;;;9.50;3.58;;;28.90;65.50;;;;;;4252019;27;20058;-72
2021/10/20 08:57:01;;;;;;;11.63;3.72;;;28.90;65.50;;;;;;4264514;27;20480;-74
2021/10/20 08:59:04;;;;;;;34.53;5.05;;;28.90;65.50;;;;;;4259269;27;20392;-75
2021/10/20 09:01:07;;;;;;;27.05;4.85;;;28.80;65.40;;;;;;4256624;27;20514;-74
2021/10/20 09:03:12;;;;;;;18.13;4.72;;;28.90;65.40;;;;;;4264049;27;20135;-73
2021/10/20 09:05:16;;;;;;;;;;;28.80;65.30;;;;;;4251621;27;20062;-72
2021/10/20 09:07:19;;;;;;;10.32;4.32;;;28.80;65.40;;;;;;4263947;27;19927;-73
2021/10/20 09:09:30;;;;;;;12.50;3.80;;;28.80;65.40;;;;;;4259348;27;20058;-73
2021/10/20 09:11:33;;;;;;;17.58;3.92;;;28.80;65.40;;;;;;4256949;27;20068;-73
2021/10/20 09:13:36;;;;;;;15.40;3.97;;;28.80;65.40;;;;;;4245117;27;20051;-73
2021/10/20 09:15:41;;;;;;;9.05;3.78;;;28.80;65.40;;;;;;4251503;27;20055;-73
2021/10/20 09:17:47;;;;;;;32.53;5.25;;;28.80;65.50;;;;;;4263961;27;20058;-73
2021/10/20 09:19:57;;;;;;;42.70;6.43;;;28.80;65.50;;;;;;4258235;27;20430;-73
2021/10/20 09:22:04;;;;;;;45.88;5.35;;;28.80;65.60;;;;;;4263696;27;20062;-72
2021/10/20 09:24:10;;;;;;;23.73;4.53;;;28.80;65.60;;;;;;4261987;27;20061;-72
2021/10/20 09:26:13;;;;;;;20.90;4.40;;;28.80;65.70;;;;;;4252054;27;20518;-72
2021/10/20 09:28:21;;;;;;;240.98;20.25;;;28.80;65.80;;;;;;4263426;27;20468;-72
2021/10/20 09:30:27;;;;;;;64.35;8.15;;;28.80;65.80;;;;;;4255667;27;20377;-72
2021/10/20 09:32:30;;;;;;;38.90;6.28;;;28.80;65.80;;;;;;4258805;27;20055;-73
2021/10/20 09:34:35;;;;;;;25.77;5.20;;;28.80;65.80;;;;;;4262106;27;20055;-73
2021/10/20 09:36:39;;;;;;;26.48;5.22;;;28.80;65.90;;;;;;4251701;27;20099;-72
2021/10/20 09:38:51;;;;;;;63.67;7.15;;;28.80;65.90;;;;;;4263471;27;20047;-72
2021/10/20 09:40:55;;;;;;;46.00;6.85;;;28.80;65.90;;;;;;4254406;27;20445;-73
2021/10/20 09:42:58;;;;;;;63.67;7.05;;;28.80;66.00;;;;;;4259465;27;20051;-72
2021/10/20 09:45:01;;;;;;;193.27;23.00;;;28.80;66.10;;;;;;4261759;27;20047;-73
2021/10/20 09:47:08;;;;;;;120.40;14.70;;;28.90;66.20;;;;;;4251729;27;20055;-72
2021/10/20 09:49:16;;;;;;;104.32;13.02;;;28.80;66.10;;;;;;4263744;27;20058;-72
2021/10/20 09:51:19;;;;;;;85.50;11.85;;;28.90;66.20;;;;;;4253706;27;20058;-73
2021/10/20 09:53:25;;;;;;;99.50;11.90;;;28.90;66.20;;;;;;4246369;27;20043;-73
2021/10/20 09:55:30;;;;;;;55.33;8.48;;;28.90;66.10;;;;;;4247483;27;20061;-73
2021/10/20 09:57:33;;;;;;;37.45;7.10;;;28.90;66.10;;;;;;4251292;27;20407;-73
2021/10/20 09:59:37;;;;;;;32.95;6.38;;;28.90;66.10;;;;;;4263341;27;20042;-72
2021/10/20 10:01:41;;;;;;;39.67;6.95;;;28.90;66.00;;;;;;4258217;27;20051;-72
2021/10/20 10:03:45;;;;;;;27.65;5.38;;;28.80;65.90;;;;;;4248973;27;20445;-72
2021/10/20 10:05:48;;;;;;;29.93;6.77;;;28.90;66.00;;;;;;4228875;27;20117;-73
2021/10/20 10:07:52;;;;;;;21.83;5.82;;;28.90;66.00;;;;;;4257256;27;20462;-75
2021/10/20 10:09:56;;;;;;;23.65;5.55;;;28.90;66.10;;;;;;4246149;27;20621;-73
2021/10/20 10:12:08;;;;;;;24.13;5.63;;;28.90;66.10;;;;;;4254903;27;20057;-73
2021/10/20 10:14:14;;;;;;;29.23;5.72;;;28.90;66.10;;;;;;4247944;27;20453;-73
2021/10/20 10:16:21;;;;;;;237.18;19.50;;;28.90;66.10;;;;;;4247497;27;20046;-73
2021/10/20 10:18:25;;;;;;;86.43;10.38;;;28.90;66.20;;;;;;4256025;27;20510;-73
2021/10/20 10:20:31;;;;;;;38.35;6.65;;;28.90;66.10;;;;;;4245478;27;20063;-73
2021/10/20 10:22:45;;;;;;;43.13;6.15;;;28.90;66.10;;;;;;4255883;27;20047;-73
2021/10/20 10:24:48;;;;;;;28.13;5.90;;;28.90;66.10;;;;;;4245764;27;20072;-73
2021/10/20 10:27:02;;;;;;;29.42;6.55;;;28.90;66.20;;;;;;4240225;27;20116;-73
2021/10/20 10:29:08;;;;;;;21.83;5.00;;;28.90;66.20;;;;;;4252932;27;20055;-73
2021/10/20 10:31:12;;;;;;;17.48;4.75;;;29.00;66.20;;;;;;4245445;27;20558;-73
2021/10/20 10:33:20;;;;;;;16.27;4.55;;;29.00;66.10;;;;;;4239341;28;20058;-73
2021/10/20 10:35:30;;;;;;;12.50;4.53;;;29.00;66.00;;;;;;4245535;28;20043;-73
2021/10/20 10:37:35;;;;;;;12.23;4.70;;;29.10;66.10;;;;;;4251895;27;20051;-73
2021/10/20 10:39:47;;;;;;;14.98;4.90;;;29.10;66.00;;;;;;4251105;27;20051;-73
2021/10/20 10:41:59;;;;;;;11.73;4.28;;;29.10;66.00;;;;;;4256510;27;20055;-73
2021/10/20 10:44:21;;;;;;;9.85;3.97;;;29.10;65.90;;;;;;4263123;27;20055;-72
2021/10/20 10:46:27;;;;;;;14.73;3.92;;;29.20;66.00;;;;;;4263189;27;20057;-72